createdAt,value
2023-03-27T00:01:28.415Z,9.49
2023-03-27T00:03:56.302Z,9.55
2023-03-27T00:06:25.321Z,9.55
2023-03-27T00:08:53.414Z,9.64
2023-03-27T00:11:25.100Z,9.67
2023-03-27T00:13:55.014Z,9.66
2023-03-27T00:16:26.952Z,9.72
2023-03-27T00:19:01.214Z,9.67
2023-03-27T00:21:31.407Z,9.58
2023-03-27T00:24:00.574Z,9.59
2023-03-27T00:26:30.670Z,9.57
2023-03-27T00:29:02.772Z,9.54
2023-03-27T00:31:31.852Z,9.48
2023-03-27T00:33:59.517Z,9.57
2023-03-27T00:36:27.373Z,9.55
2023-03-27T00:38:55.016Z,9.64
2023-03-27T00:41:23.074Z,9.64
2023-03-27T00:43:56.425Z,9.69
2023-03-27T00:46:42.442Z,9.65
2023-03-27T00:49:15.220Z,9.72
2023-03-27T00:51:49.314Z,9.61
2023-03-27T00:54:22.237Z,9.64
2023-03-27T00:56:50.633Z,9.60
2023-03-27T00:59:22.229Z,9.70
2023-03-27T01:01:50.875Z,9.66
2023-03-27T01:04:21.524Z,9.67
2023-03-27T01:06:52.766Z,9.64
2023-03-27T01:09:21.166Z,9.62
2023-03-27T01:12:13.286Z,9.78
2023-03-27T01:15:18.609Z,9.70
2023-03-27T01:18:20.948Z,9.66
2023-03-27T01:21:05.921Z,9.65
2023-03-27T01:24:08.705Z,9.66
2023-03-27T01:27:02.971Z,9.61
2023-03-27T01:29:39.656Z,9.74
2023-03-27T01:32:42.958Z,9.79
2023-03-27T01:35:25.832Z,9.62
2023-03-27T01:38:29.510Z,9.72
2023-03-27T01:41:15.296Z,9.64
2023-03-27T01:43:57.467Z,9.61
2023-03-27T01:46:32.823Z,9.52
2023-03-27T01:49:07.779Z,9.41
2023-03-27T01:51:44.058Z,9.51
2023-03-27T01:54:26.046Z,9.43
2023-03-27T01:57:04.433Z,9.40
2023-03-27T01:59:38.474Z,9.45
2023-03-27T02:02:17.503Z,9.48
2023-03-27T02:04:52.289Z,9.44
2023-03-27T02:07:29.787Z,9.48
2023-03-27T02:10:02.105Z,9.59
2023-03-27T02:12:43.751Z,9.65
2023-03-27T02:15:23.470Z,9.62
2023-03-27T02:18:05.515Z,9.55
2023-03-27T02:20:35.945Z,9.57
2023-03-27T02:23:05.317Z,9.65
2023-03-27T02:25:46.677Z,9.66
2023-03-27T02:28:46.314Z,9.69
2023-03-27T02:31:31.701Z,9.71
2023-03-27T02:34:38.516Z,9.69
2023-03-27T02:37:23.329Z,9.70
2023-03-27T02:40:11.710Z,9.73
2023-03-27T02:43:17.228Z,9.75
2023-03-27T02:46:12.856Z,9.68
2023-03-27T02:48:45.719Z,9.64
2023-03-27T02:51:25.228Z,9.71
2023-03-27T02:54:10.113Z,9.69
2023-03-27T02:56:44.830Z,9.61
2023-03-27T02:59:22.610Z,9.77
2023-03-27T03:01:50.562Z,9.68
2023-03-27T03:04:20.536Z,9.67
2023-03-27T03:06:50.483Z,9.60
2023-03-27T03:09:19.229Z,9.65
2023-03-27T03:11:50.548Z,9.54
2023-03-27T03:14:31.668Z,9.53
2023-03-27T03:16:59.590Z,9.50
2023-03-27T03:19:32.683Z,9.51
2023-03-27T03:22:01.126Z,9.54
2023-03-27T03:24:29.851Z,9.55
2023-03-27T03:26:57.906Z,9.70
2023-03-27T03:29:30.063Z,9.52
2023-03-27T03:31:57.971Z,9.52
2023-03-27T03:34:27.970Z,9.50
2023-03-27T03:36:55.597Z,9.47
2023-03-27T03:39:25.014Z,9.46
2023-03-27T03:41:52.599Z,9.37
2023-03-27T03:44:20.159Z,9.49
2023-03-27T03:46:47.774Z,9.41
2023-03-27T03:49:15.452Z,9.48
2023-03-27T03:51:46.126Z,9.56
2023-03-27T03:54:13.881Z,9.45
2023-03-27T03:56:41.879Z,9.44
2023-03-27T03:59:11.932Z,9.45
2023-03-27T04:01:40.992Z,9.51
2023-03-27T04:04:09.341Z,9.51
2023-03-27T04:06:38.019Z,9.46
2023-03-27T04:09:06.493Z,9.36
2023-03-27T04:11:35.253Z,9.59
2023-03-27T04:14:02.959Z,9.35
2023-03-27T04:16:30.534Z,9.43
2023-03-27T04:18:58.515Z,9.47
2023-03-27T04:21:26.657Z,9.53
2023-03-27T04:24:02.537Z,9.39
2023-03-27T04:26:30.497Z,9.44
2023-03-27T04:28:57.871Z,9.34
2023-03-27T04:31:26.334Z,9.35
2023-03-27T04:33:54.054Z,9.39
2023-03-27T04:36:21.577Z,9.45
2023-03-27T04:38:49.919Z,9.49
2023-03-27T04:41:22.297Z,9.36
2023-03-27T04:43:50.042Z,9.57
2023-03-27T04:46:18.104Z,9.51
2023-03-27T04:48:45.649Z,9.36
2023-03-27T04:51:12.983Z,9.41
2023-03-27T04:53:43.051Z,9.42
2023-03-27T04:56:11.274Z,9.32
2023-03-27T04:58:41.474Z,9.33
2023-03-27T05:01:10.085Z,9.10
2023-03-27T05:03:39.171Z,9.06
2023-03-27T05:06:08.461Z,8.95
2023-03-27T05:08:36.201Z,8.89
2023-03-27T05:11:04.816Z,8.84
2023-03-27T05:13:34.038Z,9.00
2023-03-27T05:16:02.102Z,8.94
2023-03-27T05:18:30.951Z,8.86
2023-03-27T05:21:06.108Z,9.15
2023-03-27T05:23:34.294Z,9.26
2023-03-27T05:26:01.655Z,9.16
2023-03-27T05:28:31.377Z,9.27
2023-03-27T05:30:59.372Z,9.55
2023-03-27T05:33:27.227Z,9.52
2023-03-27T05:35:54.837Z,9.75
2023-03-27T05:38:22.944Z,9.65
2023-03-27T05:40:58.239Z,9.65
2023-03-27T05:43:26.471Z,9.68
2023-03-27T05:45:53.942Z,9.86
2023-03-27T05:48:21.754Z,10.02
2023-03-27T05:50:49.189Z,10.04
2023-03-27T05:53:17.464Z,10.08
2023-03-27T05:55:45.961Z,10.24
2023-03-27T05:58:19.926Z,10.28
2023-03-27T06:00:48.055Z,10.13
2023-03-27T06:03:16.405Z,10.12
2023-03-27T06:05:44.160Z,9.99
2023-03-27T06:08:11.842Z,9.96
2023-03-27T06:10:43.752Z,9.87
2023-03-27T06:13:16.191Z,10.07
2023-03-27T06:15:44.634Z,10.07
2023-03-27T06:18:12.373Z,10.04
2023-03-27T06:20:42.827Z,10.11
2023-03-27T06:23:10.815Z,9.91
2023-03-27T06:25:39.461Z,10.10
2023-03-27T06:28:11.043Z,10.15
2023-03-27T06:30:39.004Z,10.21
2023-03-27T06:33:08.022Z,10.01
2023-03-27T06:35:37.168Z,10.07
2023-03-27T06:38:05.232Z,10.08
2023-03-27T06:40:35.545Z,10.11
2023-03-27T06:43:06.370Z,10.19
2023-03-27T06:45:46.192Z,10.46
2023-03-27T06:48:21.266Z,10.77
2023-03-27T06:50:52.559Z,10.69
2023-03-27T06:55:52.658Z,10.87
2023-03-27T06:58:20.879Z,11.03
2023-03-27T07:00:49.845Z,11.06
2023-03-27T07:03:19.993Z,11.17
2023-03-27T07:05:49.213Z,10.99
2023-03-27T07:08:24.529Z,11.16
2023-03-27T07:13:25.740Z,11.50
2023-03-27T07:15:53.234Z,11.55
2023-03-27T07:18:22.696Z,11.54
2023-03-27T07:20:50.542Z,12.09
2023-03-27T07:23:18.139Z,11.72
2023-03-27T07:25:45.911Z,11.54
2023-03-27T07:28:16.730Z,11.78
2023-03-27T07:30:44.184Z,11.80
2023-03-27T07:33:12.682Z,11.60
2023-03-27T07:35:45.872Z,11.70
2023-03-27T07:38:14.494Z,11.67
2023-03-27T07:40:46.958Z,12.21
2023-03-27T07:43:14.598Z,12.49
2023-03-27T07:45:42.850Z,12.62
2023-03-27T07:48:16.256Z,12.93
2023-03-27T07:50:45.325Z,13.06
2023-03-27T07:53:33.713Z,12.53
2023-03-27T07:56:00.679Z,12.51
2023-03-27T07:58:29.119Z,12.71
2023-03-27T08:01:02.450Z,12.50
2023-03-27T08:03:31.332Z,12.86
2023-03-27T08:06:01.118Z,13.03
2023-03-27T08:08:28.827Z,13.25
2023-03-27T08:10:57.158Z,13.18
2023-03-27T08:13:29.737Z,13.07
2023-03-27T08:16:14.978Z,13.17
2023-03-27T08:18:42.989Z,13.72
2023-03-27T08:21:11.848Z,13.97
2023-03-27T08:23:41.055Z,14.19
2023-03-27T08:26:09.512Z,14.21
2023-03-27T08:28:37.705Z,14.30
2023-03-27T08:31:11.796Z,14.58
2023-03-27T08:33:39.891Z,14.74
2023-03-27T08:36:10.278Z,14.78
2023-03-27T08:38:39.632Z,15.18
2023-03-27T08:41:28.709Z,15.61
2023-03-27T08:44:01.445Z,15.64
2023-03-27T08:46:38.360Z,15.96
2023-03-27T08:49:15.183Z,16.16
2023-03-27T08:51:53.997Z,15.63
2023-03-27T08:54:31.920Z,15.83
2023-03-27T08:57:00.237Z,15.96
2023-03-27T08:59:31.548Z,15.98
2023-03-27T09:02:26.970Z,16.51
2023-03-27T09:05:28.637Z,15.92
2023-03-27T09:07:59.258Z,16.52
2023-03-27T09:10:59.996Z,16.17
2023-03-27T09:13:38.292Z,15.95
2023-03-27T09:16:21.681Z,15.83
2023-03-27T09:19:07.985Z,15.98
2023-03-27T09:21:38.471Z,15.78
2023-03-27T09:24:17.858Z,16.56
2023-03-27T09:26:47.592Z,17.09
2023-03-27T09:29:24.789Z,17.82
2023-03-27T09:31:56.410Z,18.05
2023-03-27T09:34:30.620Z,17.41
2023-03-27T09:36:59.824Z,17.70
2023-03-27T09:39:34.243Z,17.84
2023-03-27T09:42:17.361Z,17.29
2023-03-27T09:44:50.603Z,17.05
2023-03-27T09:47:36.519Z,17.90
2023-03-27T09:50:13.122Z,18.30
2023-03-27T09:52:41.952Z,18.41
2023-03-27T09:55:27.048Z,17.98
2023-03-27T09:58:06.391Z,18.78
2023-03-27T10:00:35.108Z,18.23
2023-03-27T10:03:08.286Z,18.49
2023-03-27T10:05:36.530Z,18.40
2023-03-27T10:08:30.660Z,18.87
2023-03-27T10:10:59.332Z,17.76
2023-03-27T10:13:30.106Z,17.63
2023-03-27T10:16:05.331Z,17.75
2023-03-27T10:18:42.305Z,17.76
2023-03-27T10:21:18.832Z,17.59
2023-03-27T10:23:49.789Z,17.46
2023-03-27T10:26:21.175Z,17.73
2023-03-27T10:28:51.788Z,17.13
2023-03-27T10:31:30.145Z,16.99
2023-03-27T10:34:02.565Z,16.19
2023-03-27T10:36:38.083Z,16.62
2023-03-27T10:39:12.966Z,16.67
2023-03-27T10:41:40.900Z,16.13
2023-03-27T10:44:18.595Z,16.36
2023-03-27T10:46:46.874Z,16.26
2023-03-27T10:49:42.711Z,15.97
2023-03-27T10:52:28.115Z,15.93
2023-03-27T10:55:29.066Z,15.89
2023-03-27T10:58:05.352Z,16.23
2023-03-27T11:00:41.602Z,16.82
2023-03-27T11:03:45.228Z,16.92
2023-03-27T11:06:16.902Z,16.14
2023-03-27T11:09:05.270Z,16.04
2023-03-27T11:11:41.262Z,16.13
2023-03-27T11:14:19.902Z,15.93
2023-03-27T11:16:57.421Z,15.62
2023-03-27T11:19:31.178Z,15.55
2023-03-27T11:22:10.794Z,15.97
2023-03-27T11:24:47.799Z,15.74
2023-03-27T11:27:23.442Z,15.40
2023-03-27T11:30:25.703Z,15.31
2023-03-27T11:33:15.459Z,15.51
2023-03-27T11:35:52.683Z,15.29
2023-03-27T11:38:28.897Z,15.39
2023-03-27T11:40:56.854Z,15.52
2023-03-27T11:43:24.896Z,15.65
2023-03-27T11:46:15.193Z,15.40
2023-03-27T11:49:27.559Z,15.66
2023-03-27T11:52:33.460Z,15.39
2023-03-27T11:55:23.975Z,15.97
2023-03-27T11:58:04.382Z,16.26
2023-03-27T12:00:45.161Z,16.52
2023-03-27T12:03:23.647Z,17.61
2023-03-27T12:06:16.824Z,17.80
2023-03-27T12:09:23.481Z,17.38
2023-03-27T12:12:29.922Z,17.09
2023-03-27T12:15:15.106Z,17.04
2023-03-27T12:18:23.931Z,17.27
2023-03-27T12:21:18.770Z,18.04
2023-03-27T12:23:57.259Z,18.47
2023-03-27T12:27:03.154Z,18.87
2023-03-27T12:29:58.422Z,19.38
2023-03-27T12:32:33.828Z,19.75
2023-03-27T12:35:09.855Z,19.43
2023-03-27T12:37:43.045Z,18.75
2023-03-27T12:40:33.009Z,18.50
2023-03-27T12:43:21.705Z,18.56
2023-03-27T12:46:24.757Z,19.10
2023-03-27T12:48:58.285Z,19.87
2023-03-27T12:51:43.892Z,20.54
2023-03-27T12:54:14.329Z,21.59
2023-03-27T12:56:42.392Z,22.18
2023-03-27T12:59:29.533Z,22.23
2023-03-27T13:02:08.868Z,21.84
2023-03-27T13:05:26.346Z,22.42
2023-03-27T13:08:35.179Z,21.79
2023-03-27T13:11:28.710Z,22.70
2023-03-27T13:17:07.658Z,21.37
2023-03-27T13:19:59.733Z,20.63
2023-03-27T13:23:03.251Z,20.91
2023-03-27T13:25:50.582Z,21.39
2023-03-27T13:28:35.609Z,21.34
2023-03-27T13:31:05.966Z,22.28
2023-03-27T13:33:35.896Z,22.61
2023-03-27T13:36:14.498Z,23.63
2023-03-27T13:38:54.320Z,23.41
2023-03-27T13:41:40.978Z,21.84
2023-03-27T13:44:11.362Z,21.17
2023-03-27T13:46:48.132Z,21.26
2023-03-27T13:49:35.584Z,21.46
2023-03-27T13:52:27.794Z,22.00
2023-03-27T13:55:24.815Z,22.06
2023-03-27T13:58:08.769Z,22.51
2023-03-27T14:00:43.883Z,23.07
2023-03-27T14:03:49.139Z,22.70
2023-03-27T14:06:53.573Z,24.01
2023-03-27T14:09:25.557Z,24.14
2023-03-27T14:12:17.000Z,23.18
2023-03-27T14:15:09.898Z,22.82
2023-03-27T14:18:03.857Z,23.34
2023-03-27T14:20:39.865Z,22.69
2023-03-27T14:23:14.238Z,22.89
2023-03-27T14:25:49.440Z,21.90
2023-03-27T14:28:55.668Z,22.98
2023-03-27T14:31:24.754Z,22.22
2023-03-27T14:34:04.737Z,21.87
2023-03-27T14:36:42.052Z,22.10
2023-03-27T14:39:27.990Z,21.40
2023-03-27T14:41:58.924Z,21.40
2023-03-27T14:44:31.497Z,20.73
2023-03-27T14:47:15.424Z,20.96
2023-03-27T14:49:46.963Z,20.55
2023-03-27T14:52:25.100Z,19.75
2023-03-27T14:54:55.675Z,20.00
2023-03-27T14:57:25.957Z,19.33
2023-03-27T14:59:55.405Z,18.61
2023-03-27T15:02:31.978Z,18.80
2023-03-27T15:05:14.757Z,18.19
2023-03-27T15:07:44.053Z,17.89
2023-03-27T15:10:31.708Z,17.89
2023-03-27T15:12:59.420Z,17.85
2023-03-27T15:15:44.421Z,17.70
2023-03-27T15:18:36.275Z,17.20
2023-03-27T15:21:14.497Z,16.78
2023-03-27T15:24:24.363Z,16.73
2023-03-27T15:26:53.243Z,16.52
2023-03-27T15:29:28.929Z,16.24
2023-03-27T15:31:59.784Z,16.31
2023-03-27T15:34:46.167Z,16.24
2023-03-27T15:37:24.130Z,15.88
2023-03-27T15:40:22.616Z,15.55
2023-03-27T15:43:00.615Z,15.53
2023-03-27T15:45:56.129Z,15.37
2023-03-27T15:48:38.119Z,15.20
2023-03-27T15:51:15.759Z,14.95
2023-03-27T15:53:46.115Z,15.17
2023-03-27T15:56:13.473Z,15.12
2023-03-27T15:58:48.450Z,14.86
2023-03-27T16:01:23.482Z,14.83
2023-03-27T16:03:52.575Z,14.86
2023-03-27T16:06:30.928Z,14.76
2023-03-27T16:08:59.150Z,14.60
2023-03-27T16:11:43.602Z,14.45
2023-03-27T16:14:26.486Z,14.46
2023-03-27T16:17:12.159Z,14.38
2023-03-27T16:19:44.698Z,14.25
2023-03-27T16:22:13.320Z,14.23
2023-03-27T16:24:40.729Z,14.26
2023-03-27T16:27:10.417Z,14.20
2023-03-27T16:29:38.361Z,14.06
2023-03-27T16:32:06.032Z,13.94
2023-03-27T16:34:33.543Z,13.89
2023-03-27T16:37:00.961Z,13.90
2023-03-27T16:39:33.753Z,13.84
2023-03-27T16:42:01.372Z,13.82
2023-03-27T16:44:29.136Z,13.67
2023-03-27T16:46:56.563Z,13.62
2023-03-27T16:49:23.982Z,13.67
2023-03-27T16:51:51.916Z,13.63
2023-03-27T16:54:19.456Z,13.53
2023-03-27T16:56:50.913Z,13.47
2023-03-27T16:59:19.755Z,13.39
2023-03-27T17:01:47.408Z,13.31
2023-03-27T17:04:15.429Z,13.34
2023-03-27T17:06:43.624Z,13.19
2023-03-27T17:09:12.659Z,13.24
2023-03-27T17:11:41.901Z,13.17
2023-03-27T17:14:09.927Z,13.19
2023-03-27T17:16:38.511Z,13.15
2023-03-27T17:19:06.167Z,13.09
2023-03-27T17:21:33.650Z,13.09
2023-03-27T17:24:02.362Z,13.01
2023-03-27T17:26:34.422Z,13.10
2023-03-27T17:29:06.903Z,13.11
2023-03-27T17:31:35.945Z,12.98
2023-03-27T17:34:03.485Z,13.03
2023-03-27T17:36:41.098Z,13.03
2023-03-27T17:39:10.496Z,12.97
2023-03-27T17:41:38.014Z,12.90
2023-03-27T17:44:07.510Z,12.93
2023-03-27T17:46:36.449Z,12.85
2023-03-27T17:49:03.999Z,12.92
2023-03-27T17:51:31.535Z,12.88
2023-03-27T17:54:05.237Z,12.83
2023-03-27T17:56:32.985Z,12.77
2023-03-27T17:59:00.443Z,12.81
2023-03-27T18:01:32.770Z,12.76
2023-03-27T18:04:00.689Z,12.81
2023-03-27T18:06:28.377Z,12.84
2023-03-27T18:08:56.051Z,12.83
2023-03-27T18:11:23.869Z,12.75
2023-03-27T18:13:53.443Z,12.81
2023-03-27T18:16:23.158Z,12.80
2023-03-27T18:18:52.454Z,12.81
2023-03-27T18:21:20.068Z,12.75
2023-03-27T18:23:47.907Z,12.84
2023-03-27T18:26:16.682Z,12.88
2023-03-27T18:28:44.164Z,12.87
2023-03-27T18:31:12.819Z,12.87
2023-03-27T18:33:40.539Z,12.90
2023-03-27T18:36:10.761Z,12.92
2023-03-27T18:38:41.938Z,12.84
2023-03-27T18:41:11.242Z,12.91
2023-03-27T18:43:46.909Z,12.78
2023-03-27T18:46:17.141Z,12.77
2023-03-27T18:48:46.484Z,12.71
2023-03-27T18:51:15.118Z,12.74
2023-03-27T18:53:43.336Z,12.74
2023-03-27T18:56:13.626Z,12.89
2023-03-27T18:58:43.240Z,12.69
2023-03-27T19:01:11.063Z,12.67
2023-03-27T19:03:39.712Z,12.51
2023-03-27T19:06:09.803Z,12.44
2023-03-27T19:08:38.529Z,12.52
2023-03-27T19:11:13.061Z,12.60
2023-03-27T19:13:41.388Z,12.49
2023-03-27T19:16:14.903Z,12.44
2023-03-27T19:18:42.852Z,12.47
2023-03-27T19:21:10.344Z,12.33
2023-03-27T19:23:37.765Z,12.28
2023-03-27T19:26:11.150Z,12.38
2023-03-27T19:28:40.381Z,12.35
2023-03-27T19:31:10.460Z,12.52
2023-03-27T19:33:39.025Z,12.39
2023-03-27T19:36:07.034Z,12.56
2023-03-27T19:38:34.943Z,12.44
2023-03-27T19:41:02.405Z,12.44
2023-03-27T19:43:30.114Z,12.37
2023-03-27T19:46:14.225Z,12.25
2023-03-27T19:48:50.040Z,12.31
2023-03-27T19:51:17.569Z,12.34
2023-03-27T19:53:44.968Z,12.28
2023-03-27T19:56:12.726Z,12.28
2023-03-27T19:58:40.385Z,12.25
2023-03-27T20:01:07.972Z,12.10
2023-03-27T20:03:38.524Z,12.14
2023-03-27T20:06:13.225Z,11.90
2023-03-27T20:08:45.231Z,12.04
2023-03-27T20:11:13.164Z,11.92
2023-03-27T20:13:52.929Z,12.09
2023-03-27T20:16:26.560Z,11.87
2023-03-27T20:19:03.480Z,12.03
2023-03-27T20:21:36.303Z,11.86
2023-03-27T20:24:05.846Z,11.81
2023-03-27T20:26:39.070Z,11.69
2023-03-27T20:29:12.370Z,11.70
2023-03-27T20:31:41.038Z,11.61
2023-03-27T20:34:09.602Z,11.62
2023-03-27T20:36:39.660Z,11.61
2023-03-27T20:39:08.363Z,11.56
2023-03-27T20:41:39.738Z,11.55
2023-03-27T20:44:35.027Z,11.44
2023-03-27T20:47:12.276Z,11.32
2023-03-27T20:49:45.253Z,11.44
2023-03-27T20:52:15.540Z,11.34
2023-03-27T20:54:43.388Z,11.16
2023-03-27T20:57:12.074Z,11.18
2023-03-27T20:59:39.657Z,11.28
2023-03-27T21:02:07.449Z,11.30
2023-03-27T21:04:34.984Z,11.12
2023-03-27T21:07:02.724Z,11.04
2023-03-27T21:09:31.892Z,10.97
2023-03-27T21:12:01.465Z,11.01
2023-03-27T21:14:28.993Z,11.09
2023-03-27T21:16:56.603Z,11.07
2023-03-27T21:19:24.210Z,10.92
2023-03-27T21:21:52.487Z,10.88
2023-03-27T21:24:20.896Z,10.70
2023-03-27T21:26:48.377Z,10.79
2023-03-27T21:29:18.436Z,10.64
2023-03-27T21:31:46.216Z,10.62
2023-03-27T21:34:13.690Z,10.55
2023-03-27T21:36:41.742Z,10.53
2023-03-27T21:39:09.219Z,10.58
2023-03-27T21:41:37.411Z,10.65
2023-03-27T21:44:05.131Z,10.70
2023-03-27T21:46:32.837Z,10.82
2023-03-27T21:49:00.768Z,10.83
2023-03-27T21:51:28.165Z,10.85
2023-03-27T21:53:55.800Z,10.95
2023-03-27T21:56:23.227Z,11.00
2023-03-27T21:58:50.891Z,11.00
2023-03-27T22:01:18.926Z,10.97
2023-03-27T22:03:47.564Z,10.85
2023-03-27T22:06:15.533Z,10.90
2023-03-27T22:08:43.705Z,10.95
2023-03-27T22:11:12.661Z,10.89
2023-03-27T22:13:43.429Z,10.74
2023-03-27T22:16:14.862Z,10.79
2023-03-27T22:18:43.764Z,10.86
2023-03-27T22:21:17.657Z,10.77
2023-03-27T22:23:45.755Z,10.54
2023-03-27T22:26:13.952Z,10.72
2023-03-27T22:28:42.583Z,10.66
2023-03-27T22:31:10.139Z,10.71
2023-03-27T22:33:37.865Z,10.69
2023-03-27T22:36:09.226Z,10.50
2023-03-27T22:38:37.644Z,10.53
2023-03-27T22:41:07.478Z,10.54
2023-03-27T22:43:35.036Z,10.46
2023-03-27T22:46:16.539Z,10.47
2023-03-27T22:48:44.686Z,10.47
2023-03-27T22:51:13.456Z,10.47
2023-03-27T22:53:44.989Z,10.57
2023-03-27T22:56:12.346Z,10.64
2023-03-27T22:58:39.746Z,10.48
2023-03-27T23:01:07.773Z,10.38
2023-03-27T23:03:37.539Z,10.53
2023-03-27T23:06:06.055Z,10.54
2023-03-27T23:08:36.776Z,10.61
2023-03-27T23:11:05.924Z,10.55
2023-03-27T23:13:34.932Z,10.49
2023-03-27T23:16:03.257Z,10.37
2023-03-27T23:18:30.798Z,10.38
2023-03-27T23:21:03.738Z,10.26
2023-03-27T23:23:32.868Z,10.15
2023-03-27T23:26:00.694Z,10.08
2023-03-27T23:28:33.101Z,9.97
2023-03-27T23:31:03.163Z,10.13
2023-03-27T23:33:38.317Z,10.08
2023-03-27T23:36:21.070Z,10.19
2023-03-27T23:38:49.980Z,10.25
2023-03-27T23:41:18.390Z,10.09
2023-03-27T23:43:46.211Z,10.17
2023-03-27T23:46:14.150Z,10.19
2023-03-27T23:48:43.146Z,10.00
2023-03-27T23:51:13.350Z,10.06
2023-03-27T23:53:44.803Z,10.23
2023-03-27T23:56:12.255Z,10.19
2023-03-27T23:58:39.860Z,10.29
